createdAt,value
2017-04-25T04:00:47.730Z,24
2017-04-25T04:01:13.191Z,24
2017-04-25T04:01:38.676Z,28
2017-04-25T04:02:04.648Z,28
2017-04-25T04:02:30.170Z,32
2017-04-25T04:03:34.518Z,36
2017-04-25T04:03:59.992Z,40
2017-04-25T04:04:25.434Z,36
2017-04-25T04:04:51.714Z,40
2017-04-25T04:05:16.392Z,44
2017-04-25T04:05:44.212Z,52
2017-04-25T04:06:09.738Z,60
2017-04-25T04:06:36.213Z,60
2017-04-25T04:07:00.778Z,68
2017-04-25T04:07:29.155Z,72
2017-04-25T04:07:55.534Z,80
2017-04-25T04:08:22.729Z,84
2017-04-25T04:08:48.392Z,88
2017-04-25T04:09:13.806Z,96
2017-04-25T04:09:41.719Z,100
2017-04-25T04:10:06.256Z,100
2017-04-25T04:10:31.746Z,104
2017-04-25T04:10:58.111Z,96
2017-04-25T04:11:24.214Z,88
2017-04-25T04:11:49.017Z,80
2017-04-25T04:12:15.135Z,88
2017-04-25T04:12:40.636Z,96
2017-04-25T04:13:06.797Z,104
2017-04-25T04:13:32.760Z,104
2017-04-25T04:13:58.220Z,108
2017-04-25T04:14:23.685Z,112
2017-04-25T04:14:49.156Z,112
2017-04-25T04:15:15.908Z,120
2017-04-25T04:15:41.354Z,132
2017-04-25T04:16:07.802Z,144
2017-04-25T04:16:32.836Z,148
2017-04-25T04:16:59.215Z,152
2017-04-25T04:17:26.214Z,148
2017-04-25T04:17:52.213Z,140
2017-04-25T04:18:16.654Z,144
2017-04-25T04:18:43.061Z,136
2017-04-25T04:19:08.499Z,156
2017-04-25T04:19:34.866Z,180
2017-04-25T04:20:01.065Z,208
2017-04-25T04:20:26.529Z,216
2017-04-25T04:20:53.733Z,232
2017-04-25T04:21:19.909Z,212
2017-04-25T04:21:46.222Z,204
2017-04-25T04:22:12.212Z,192
2017-04-25T04:22:38.216Z,196
2017-04-25T04:23:02.484Z,256
2017-04-25T04:23:28.715Z,268
2017-04-25T04:23:54.229Z,264
2017-04-25T04:24:20.218Z,284
2017-04-25T04:24:44.356Z,280
2017-04-25T04:25:10.752Z,260
2017-04-25T04:25:37.549Z,244
2017-04-25T04:26:03.132Z,240
2017-04-25T04:26:30.026Z,264
2017-04-25T04:26:55.509Z,232
2017-04-25T04:27:20.968Z,280
2017-04-25T04:27:47.231Z,328
2017-04-25T04:28:12.721Z,324
2017-04-25T04:28:38.021Z,304
2017-04-25T04:29:04.758Z,400
2017-04-25T04:29:30.715Z,456
2017-04-25T04:29:56.220Z,432
2017-04-25T04:30:21.689Z,444
2017-04-25T04:30:47.720Z,448
2017-04-25T04:31:12.632Z,436
2017-04-25T04:32:38.778Z,560
2017-04-25T04:33:03.031Z,556
2017-04-25T04:33:33.275Z,512
2017-04-25T04:33:56.819Z,524
2017-04-25T04:34:23.274Z,584
2017-04-25T04:34:51.331Z,604
2017-04-25T04:35:16.076Z,664
2017-04-25T04:35:42.788Z,660
2017-04-25T04:36:08.301Z,632
2017-04-25T04:36:34.436Z,684
2017-04-25T04:37:00.566Z,700
2017-04-25T04:37:27.103Z,712
2017-04-25T04:37:52.585Z,708
2017-04-25T04:38:18.072Z,696
2017-04-25T04:38:44.286Z,688
2017-04-25T04:39:09.844Z,668
2017-04-25T04:39:35.775Z,612
2017-04-25T04:40:01.279Z,532
2017-04-25T04:40:26.809Z,508
2017-04-25T04:40:53.277Z,632
2017-04-25T04:41:18.777Z,572
2017-04-25T04:41:44.295Z,520
2017-04-25T04:42:09.811Z,436
2017-04-25T04:42:35.305Z,572
2017-04-25T04:43:00.246Z,544
2017-04-25T04:43:27.104Z,568
2017-04-25T04:43:56.829Z,736
2017-04-25T04:44:23.277Z,880
2017-04-25T04:44:49.282Z,812
2017-04-25T04:45:13.837Z,764
2017-04-25T04:45:39.939Z,704
2017-04-25T04:46:05.957Z,720
2017-04-25T04:46:32.276Z,764
2017-04-25T04:46:56.819Z,784
2017-04-25T04:47:25.809Z,804
2017-04-25T04:47:50.322Z,732
2017-04-25T04:48:16.623Z,776
2017-04-25T04:48:42.110Z,724
2017-04-25T04:49:10.282Z,688
2017-04-25T04:49:35.353Z,744
2017-04-25T04:50:00.261Z,904
2017-04-25T04:50:25.751Z,1068
2017-04-25T04:50:52.137Z,1148
2017-04-25T04:51:17.701Z,1092
2017-04-25T04:51:44.948Z,1104
2017-04-25T04:52:10.408Z,1128
2017-04-25T04:52:35.860Z,1148
2017-04-25T04:53:01.351Z,1084
2017-04-25T04:53:27.774Z,1136
2017-04-25T04:53:52.248Z,1100
2017-04-25T04:54:19.493Z,1052
2017-04-25T04:54:44.971Z,972
2017-04-25T04:55:10.396Z,976
2017-04-25T04:55:35.866Z,936
2017-04-25T04:56:02.065Z,880
2017-04-25T04:56:27.515Z,860
2017-04-25T04:56:52.996Z,820
2017-04-25T04:57:26.109Z,952
2017-04-25T04:57:52.493Z,944
2017-04-25T04:58:17.943Z,1048
2017-04-25T04:58:44.807Z,1280
2017-04-25T04:59:09.678Z,1556
2017-04-25T04:59:35.767Z,1644
2017-04-25T05:00:01.807Z,1808
2017-04-25T05:00:28.608Z,1828
2017-04-25T05:00:54.074Z,1836
2017-04-25T05:01:19.524Z,1956
2017-04-25T05:01:45.008Z,1928
2017-04-25T05:02:11.250Z,2040
2017-04-25T05:02:37.076Z,2088
2017-04-25T05:03:03.445Z,1988
2017-04-25T05:03:28.886Z,1984
2017-04-25T05:03:55.168Z,1960
2017-04-25T05:04:20.625Z,1912
2017-04-25T05:04:46.103Z,1816
2017-04-25T05:05:12.502Z,1828
2017-04-25T05:05:38.857Z,1964
2017-04-25T05:06:03.462Z,2080
2017-04-25T05:06:30.531Z,1992
2017-04-25T05:06:56.110Z,1780
2017-04-25T05:07:21.699Z,1744
2017-04-25T05:07:47.995Z,1924
2017-04-25T05:08:15.276Z,2048
2017-04-25T05:08:40.308Z,1872
2017-04-25T05:09:06.278Z,1756
2017-04-25T05:09:32.823Z,1572
2017-04-25T05:09:58.277Z,1688
2017-04-25T05:10:22.889Z,1920
2017-04-25T05:10:49.323Z,2044
2017-04-25T05:11:15.565Z,1976
2017-04-25T05:11:41.007Z,1852
2017-04-25T05:12:07.201Z,1972
2017-04-25T05:12:32.649Z,2032
2017-04-25T05:13:04.736Z,2200
2017-04-25T05:13:30.779Z,2248
2017-04-25T05:13:57.295Z,2392
2017-04-25T05:14:22.793Z,2584
2017-04-25T05:14:47.565Z,2760
2017-04-25T05:15:13.719Z,2740
2017-04-25T05:15:39.204Z,2700
2017-04-25T05:16:05.400Z,2696
2017-04-25T05:16:30.850Z,2484
2017-04-25T05:16:56.303Z,2436
2017-04-25T05:17:21.785Z,2776
2017-04-25T05:17:48.233Z,2620
2017-04-25T05:18:14.318Z,2452
2017-04-25T05:18:39.131Z,2396
2017-04-25T05:19:04.610Z,2444
2017-04-25T05:19:30.931Z,2300
2017-04-25T05:19:58.275Z,2100
2017-04-25T05:20:23.407Z,2140
2017-04-25T05:20:49.746Z,2344
2017-04-25T05:21:15.217Z,2524
2017-04-25T05:21:40.652Z,2504
2017-04-25T05:22:06.799Z,2468
2017-04-25T05:22:32.284Z,2500
2017-04-25T05:22:58.801Z,2544
2017-04-25T05:23:23.778Z,2516
2017-04-25T05:23:50.802Z,2480
2017-04-25T05:24:18.299Z,2488
2017-04-25T05:24:42.855Z,2468
2017-04-25T05:25:08.292Z,2416
2017-04-25T05:25:33.818Z,2364
2017-04-25T05:25:59.235Z,2464
2017-04-25T05:26:24.700Z,2532
2017-04-25T05:26:50.201Z,2404
2017-04-25T05:27:15.642Z,2552
2017-04-25T05:27:41.114Z,2664
2017-04-25T05:28:06.604Z,2680
2017-04-25T05:28:32.055Z,2516
2017-04-25T05:28:57.490Z,2396
2017-04-25T05:29:22.952Z,2392
2017-04-25T05:29:48.434Z,2316
2017-04-25T05:30:13.902Z,2252
2017-04-25T05:30:39.365Z,2284
2017-04-25T05:31:04.811Z,2332
2017-04-25T05:31:30.253Z,2464
2017-04-25T05:31:55.733Z,2568
2017-04-25T05:32:21.209Z,2380
2017-04-25T05:32:46.700Z,2292
2017-04-25T05:33:12.162Z,2372
2017-04-25T05:33:37.666Z,2380
2017-04-25T05:34:03.154Z,2500
2017-04-25T05:34:28.644Z,2684
2017-04-25T05:34:54.083Z,2700
2017-04-25T05:35:19.593Z,2792
2017-04-25T05:35:45.059Z,2952
2017-04-25T05:36:10.525Z,3088
2017-04-25T05:36:36.002Z,2908
2017-04-25T05:37:01.493Z,2788
2017-04-25T05:37:26.949Z,2880
2017-04-25T05:37:52.415Z,2728
2017-04-25T05:38:17.876Z,2776
2017-04-25T05:38:43.344Z,2996
2017-04-25T05:39:08.817Z,3112
2017-04-25T05:39:34.325Z,3268
2017-04-25T05:39:59.772Z,3552
2017-04-25T05:40:25.332Z,3760
2017-04-25T05:40:50.822Z,3748
2017-04-25T05:41:16.253Z,3816
2017-04-25T05:41:41.711Z,4096
2017-04-25T05:42:07.167Z,3676
2017-04-25T05:42:32.645Z,3500
2017-04-25T05:42:58.127Z,3504
2017-04-25T05:43:23.570Z,3572
2017-04-25T05:43:49.046Z,3604
2017-04-25T05:44:14.522Z,3752
2017-04-25T05:44:39.991Z,3604
2017-04-25T05:45:05.464Z,3476
2017-04-25T05:45:30.931Z,3260
2017-04-25T05:45:56.384Z,3092
2017-04-25T05:46:21.830Z,3068
2017-04-25T05:46:47.311Z,3116
2017-04-25T05:47:12.779Z,3160
2017-04-25T05:47:38.228Z,3236
2017-04-25T05:48:03.711Z,3340
2017-04-25T05:48:29.204Z,3468
2017-04-25T05:48:54.691Z,3508
2017-04-25T05:49:20.123Z,3608
2017-04-25T05:49:45.597Z,3404
2017-04-25T05:50:11.069Z,3332
2017-04-25T05:50:36.563Z,3432
2017-04-25T05:51:02.003Z,3524
2017-04-25T05:51:27.503Z,3636
2017-04-25T05:51:52.964Z,3708
2017-04-25T05:52:18.433Z,3888
2017-04-25T05:52:43.953Z,3940
2017-04-25T05:53:09.411Z,4156
2017-04-25T05:53:34.882Z,4572
2017-04-25T05:54:00.363Z,5128
2017-04-25T05:54:25.829Z,5616
2017-04-25T05:54:51.286Z,5240
2017-04-25T05:55:16.797Z,5160
2017-04-25T05:55:42.256Z,5020
2017-04-25T05:56:07.723Z,5240
2017-04-25T05:56:33.205Z,5308
2017-04-25T05:56:58.625Z,5408
2017-04-25T05:57:24.101Z,5788
2017-04-25T05:57:49.577Z,5732
2017-04-25T05:58:15.037Z,5904
2017-04-25T05:58:40.485Z,5924
2017-04-25T05:59:05.918Z,5720
2017-04-25T05:59:31.381Z,5912
2017-04-25T05:59:56.868Z,6288
2017-04-25T06:00:22.358Z,6860
2017-04-25T06:00:47.808Z,7132
2017-04-25T06:01:13.305Z,7016
2017-04-25T06:01:38.807Z,7224
2017-04-25T06:02:04.267Z,7464
2017-04-25T06:02:29.716Z,7020
2017-04-25T06:02:55.206Z,6852
2017-04-25T06:03:20.667Z,6432
2017-04-25T06:03:46.131Z,5760
2017-04-25T06:04:11.647Z,5172
2017-04-25T06:04:37.148Z,4944
2017-04-25T06:05:02.584Z,4720
2017-04-25T06:05:28.035Z,4696
2017-04-25T06:05:53.498Z,4932
2017-04-25T06:06:18.985Z,5380
2017-04-25T06:06:44.460Z,5524
2017-04-25T06:07:09.951Z,5344
2017-04-25T06:07:35.415Z,5208
2017-04-25T06:08:00.830Z,5280
2017-04-25T06:08:26.338Z,5492
2017-04-25T06:08:51.811Z,5636
2017-04-25T06:09:17.287Z,5544
2017-04-25T06:09:42.751Z,5500
2017-04-25T06:10:08.248Z,5652
2017-04-25T06:10:33.702Z,6240
2017-04-25T06:10:59.169Z,6612
2017-04-25T06:11:24.645Z,6516
2017-04-25T06:11:50.149Z,6424
2017-04-25T06:12:15.600Z,6300
2017-04-25T06:12:41.080Z,6192
2017-04-25T06:13:06.561Z,6332
2017-04-25T06:13:31.987Z,6040
2017-04-25T06:13:57.465Z,6176
2017-04-25T06:14:22.954Z,6308
2017-04-25T06:14:48.407Z,6304
2017-04-25T06:15:13.884Z,6104
2017-04-25T06:15:39.330Z,6224
2017-04-25T06:16:04.812Z,6248
2017-04-25T06:16:30.289Z,6456
2017-04-25T06:16:55.744Z,6368
2017-04-25T06:17:21.222Z,6164
2017-04-25T06:17:46.676Z,6004
2017-04-25T06:18:12.149Z,5860
2017-04-25T06:18:37.603Z,5868
2017-04-25T06:19:03.086Z,6164
2017-04-25T06:19:28.558Z,6432
2017-04-25T06:19:54.053Z,6180
2017-04-25T06:20:19.555Z,5996
2017-04-25T06:20:44.993Z,6064
2017-04-25T06:21:10.453Z,6092
2017-04-25T06:21:36.076Z,6016
2017-04-25T06:22:01.570Z,6156
2017-04-25T06:22:27.243Z,6252
2017-04-25T06:22:52.951Z,6332
2017-04-25T06:23:18.518Z,6268
2017-04-25T06:23:44.062Z,6292
2017-04-25T06:24:09.344Z,6272
2017-04-25T06:24:34.944Z,6472
2017-04-25T06:25:00.393Z,6764
2017-04-25T06:25:25.865Z,6952
2017-04-25T06:25:51.372Z,7248
2017-04-25T06:26:16.859Z,7236
2017-04-25T06:26:42.296Z,6924
2017-04-25T06:27:07.751Z,6764
2017-04-25T06:27:33.221Z,6772
2017-04-25T06:27:58.715Z,6864
2017-04-25T06:28:24.197Z,6620
2017-04-25T06:28:49.690Z,6720
2017-04-25T06:29:15.146Z,6820
2017-04-25T06:29:40.653Z,6488
2017-04-25T06:30:06.112Z,6600
2017-04-25T06:30:31.590Z,6224
2017-04-25T06:30:57.035Z,5932
2017-04-25T06:31:22.526Z,5960
2017-04-25T06:31:47.971Z,5736
2017-04-25T06:32:13.461Z,5380
2017-04-25T06:32:38.912Z,5364
2017-04-25T06:33:04.407Z,5132
2017-04-25T06:33:29.911Z,4788
2017-04-25T06:33:55.364Z,4408
2017-04-25T06:34:20.800Z,4228
2017-04-25T06:34:46.307Z,3956
2017-04-25T06:35:11.752Z,3768
2017-04-25T06:35:37.260Z,3588
2017-04-25T06:36:02.693Z,3296
2017-04-25T06:36:28.174Z,3084
2017-04-25T06:36:53.656Z,3076
2017-04-25T06:37:19.141Z,3104
2017-04-25T06:37:44.575Z,3120
2017-04-25T06:38:10.042Z,3256
2017-04-25T06:38:35.624Z,3356
2017-04-25T06:39:01.060Z,3376
2017-04-25T06:39:26.526Z,3424
2017-04-25T06:39:52.018Z,3668
2017-04-25T06:40:17.644Z,3932
2017-04-25T06:40:42.996Z,4132
2017-04-25T06:41:08.450Z,4436
2017-04-25T06:41:33.897Z,4360
2017-04-25T06:41:59.376Z,4568
2017-04-25T06:42:24.835Z,4696
2017-04-25T06:42:50.315Z,4948
2017-04-25T06:43:15.733Z,4856
2017-04-25T06:43:41.457Z,4940
2017-04-25T06:44:06.962Z,5224
2017-04-25T06:44:32.440Z,4964
2017-04-25T06:44:57.922Z,4832
2017-04-25T06:45:23.399Z,4940
2017-04-25T06:45:48.929Z,4472
2017-04-25T06:46:14.439Z,4540
2017-04-25T06:46:39.889Z,4740
2017-04-25T06:47:05.397Z,4996
2017-04-25T06:47:30.821Z,5020
2017-04-25T06:47:56.290Z,4916
2017-04-25T06:48:21.782Z,4200
2017-04-25T06:48:47.218Z,4788
2017-04-25T06:49:12.691Z,5132
2017-04-25T06:49:38.197Z,5100
2017-04-25T06:50:03.670Z,4732
2017-04-25T06:50:29.100Z,3796
2017-04-25T06:50:54.589Z,3932
2017-04-25T06:51:20.049Z,3936
2017-04-25T06:51:45.519Z,3952
2017-04-25T06:52:10.985Z,3984
2017-04-25T06:52:36.443Z,3864
2017-04-25T06:53:01.934Z,3796
2017-04-25T06:53:27.357Z,3764
2017-04-25T06:53:52.826Z,3848
2017-04-25T06:54:18.307Z,3756
2017-04-25T06:54:43.793Z,3940
2017-04-25T06:55:09.251Z,3744
2017-04-25T06:55:34.721Z,3672
2017-04-25T06:56:00.189Z,3728
2017-04-25T06:56:25.658Z,3760
2017-04-25T06:56:51.131Z,3628
2017-04-25T06:57:16.568Z,3544
2017-04-25T06:57:42.042Z,3556
2017-04-25T06:58:07.518Z,3524
2017-04-25T06:58:32.988Z,3572
2017-04-25T06:58:58.458Z,3648
2017-04-25T06:59:23.948Z,3708
2017-04-25T06:59:49.398Z,3724
2017-04-25T07:00:14.855Z,3972
2017-04-25T07:00:40.300Z,4312
2017-04-25T07:01:05.773Z,4156
2017-04-25T07:01:31.271Z,3880
2017-04-25T07:01:56.680Z,3888
2017-04-25T07:02:22.169Z,4016
2017-04-25T07:02:47.636Z,4188
2017-04-25T07:03:13.099Z,4592
2017-04-25T07:03:38.590Z,4892
2017-04-25T07:04:04.061Z,5168
2017-04-25T07:04:29.543Z,5020
2017-04-25T07:04:55.008Z,5016
2017-04-25T07:05:20.503Z,5336
2017-04-25T07:05:45.972Z,5376
2017-04-25T07:06:11.432Z,6252
2017-04-25T07:06:36.915Z,7112
2017-04-25T07:07:02.387Z,9028
2017-04-25T07:07:27.859Z,10632
2017-04-25T07:07:53.337Z,12172
2017-04-25T07:08:18.830Z,11432
2017-04-25T07:08:44.280Z,9148
2017-04-25T07:09:09.757Z,6712
2017-04-25T07:09:35.225Z,5320
2017-04-25T07:10:00.705Z,4544
2017-04-25T07:10:26.142Z,4836
2017-04-25T07:10:51.603Z,5492
2017-04-25T07:11:17.067Z,6040
2017-04-25T07:11:42.558Z,6704
2017-04-25T07:12:08.034Z,9080
2017-04-25T07:12:33.516Z,11972
2017-04-25T07:12:59.008Z,10552
2017-04-25T07:13:24.443Z,8120
2017-04-25T07:13:49.907Z,7344
2017-04-25T07:14:15.357Z,8168
2017-04-25T07:14:40.845Z,8336
2017-04-25T07:15:06.314Z,7588
2017-04-25T07:15:31.765Z,6388
2017-04-25T07:15:57.209Z,7072
2017-04-25T07:16:22.679Z,6800
2017-04-25T07:16:48.126Z,6856
2017-04-25T07:17:13.603Z,7752
2017-04-25T07:17:39.082Z,8000
2017-04-25T07:18:04.550Z,7928
2017-04-25T07:18:30.017Z,6908
2017-04-25T07:18:55.499Z,6404
2017-04-25T07:19:20.974Z,5396
2017-04-25T07:19:46.426Z,4520
2017-04-25T07:20:11.906Z,4572
2017-04-25T07:20:37.369Z,4676
2017-04-25T07:21:02.814Z,5664
2017-04-25T07:21:28.274Z,5804
2017-04-25T07:21:53.750Z,5124
2017-04-25T07:22:19.202Z,5524
2017-04-25T07:22:44.676Z,6372
2017-04-25T07:23:10.210Z,7952
2017-04-25T07:23:35.729Z,7520
2017-04-25T07:24:01.200Z,6532
2017-04-25T07:24:26.834Z,6372
2017-04-25T07:24:52.266Z,7064
2017-04-25T07:25:17.747Z,8048
2017-04-25T07:25:43.236Z,8672
2017-04-25T07:26:08.698Z,8872
2017-04-25T07:26:34.160Z,8492
2017-04-25T07:26:59.636Z,8512
2017-04-25T07:27:25.110Z,9248
2017-04-25T07:27:50.578Z,10692
2017-04-25T07:28:16.066Z,11804
2017-04-25T07:28:41.530Z,12184
2017-04-25T07:29:06.998Z,10844
2017-04-25T07:29:32.458Z,9916
2017-04-25T07:29:57.941Z,8744
2017-04-25T07:30:23.381Z,8916
2017-04-25T07:30:48.860Z,9736
2017-04-25T07:31:14.333Z,11616
2017-04-25T07:31:39.831Z,13024
2017-04-25T07:32:05.305Z,10904
2017-04-25T07:32:30.782Z,8792
2017-04-25T07:32:56.294Z,7480
2017-04-25T07:33:21.808Z,7076
2017-04-25T07:33:47.274Z,8072
2017-04-25T07:34:12.728Z,8484
2017-04-25T07:34:38.207Z,9268
2017-04-25T07:35:03.718Z,9696
2017-04-25T07:35:29.192Z,9264
2017-04-25T07:35:54.675Z,7864
2017-04-25T07:36:20.152Z,6384
2017-04-25T07:36:45.610Z,6376
2017-04-25T07:37:11.135Z,6928
2017-04-25T07:37:36.557Z,7852
2017-04-25T07:38:02.011Z,9596
2017-04-25T07:38:27.472Z,9788
2017-04-25T07:38:52.946Z,8956
2017-04-25T07:39:18.423Z,8436
2017-04-25T07:39:43.929Z,8432
2017-04-25T07:40:09.419Z,6844
2017-04-25T07:40:34.852Z,5556
2017-04-25T07:41:00.323Z,4556
2017-04-25T07:41:25.822Z,3580
2017-04-25T07:41:51.286Z,3524
2017-04-25T07:42:16.797Z,3564
2017-04-25T07:42:42.264Z,3648
2017-04-25T07:43:07.777Z,3712
2017-04-25T07:43:33.300Z,3740
2017-04-25T07:43:58.767Z,3896
2017-04-25T07:44:24.229Z,4144
2017-04-25T07:44:49.713Z,4648
2017-04-25T07:45:15.141Z,4952
2017-04-25T07:45:40.625Z,4604
2017-04-25T07:46:06.078Z,4676
2017-04-25T07:46:31.532Z,4884
2017-04-25T07:46:56.997Z,4848
2017-04-25T07:47:22.494Z,4880
2017-04-25T07:47:47.968Z,4824
2017-04-25T07:48:13.457Z,5200
2017-04-25T07:48:38.926Z,5796
2017-04-25T07:49:04.397Z,5352
2017-04-25T07:49:29.871Z,4768
2017-04-25T07:49:55.360Z,4840
2017-04-25T07:50:20.847Z,5352
2017-04-25T07:50:46.314Z,5692
2017-04-25T07:51:11.803Z,6328
2017-04-25T07:51:37.279Z,7004
2017-04-25T07:52:02.764Z,6948
2017-04-25T07:52:28.334Z,6564
2017-04-25T07:52:53.812Z,6784
2017-04-25T07:53:19.294Z,7356
2017-04-25T07:53:44.889Z,7944
2017-04-25T07:54:10.394Z,7240
2017-04-25T07:54:35.879Z,7272
2017-04-25T07:55:01.348Z,7020
2017-04-25T07:55:26.839Z,6692
2017-04-25T07:55:52.305Z,6188
2017-04-25T07:56:17.749Z,6816
2017-04-25T07:56:43.235Z,8020
2017-04-25T07:57:08.693Z,9076
2017-04-25T07:57:34.209Z,8588
2017-04-25T07:57:59.676Z,7532
2017-04-25T07:58:25.171Z,7692
2017-04-25T07:58:50.621Z,8212
2017-04-25T07:59:16.089Z,7568
2017-04-25T07:59:41.567Z,7304
2017-04-25T08:00:07.014Z,7760
2017-04-25T08:00:32.504Z,8540
2017-04-25T08:00:57.964Z,9736
2017-04-25T08:01:23.423Z,10416
2017-04-25T08:01:48.877Z,9284
2017-04-25T08:02:14.418Z,9660
2017-04-25T08:02:39.868Z,11888
2017-04-25T08:03:05.308Z,13120
2017-04-25T08:03:30.782Z,10676
2017-04-25T08:03:56.269Z,9332
2017-04-25T08:04:21.707Z,8892
2017-04-25T08:04:47.208Z,7696
2017-04-25T08:05:12.647Z,7848
2017-04-25T08:05:38.117Z,7436
2017-04-25T08:06:03.584Z,8664
2017-04-25T08:06:29.079Z,9428
2017-04-25T08:06:54.534Z,10884
2017-04-25T08:07:20.042Z,10664
2017-04-25T08:07:45.476Z,9528
2017-04-25T08:08:10.955Z,9508
2017-04-25T08:08:36.436Z,10424
2017-04-25T08:09:01.927Z,10292
2017-04-25T08:09:27.406Z,10756
2017-04-25T08:09:52.876Z,9836
2017-04-25T08:10:18.340Z,9848
2017-04-25T08:10:43.822Z,8960
2017-04-25T08:11:09.276Z,8460
2017-04-25T08:11:34.758Z,8092
2017-04-25T08:12:00.222Z,7488
2017-04-25T08:12:25.707Z,7840
2017-04-25T08:12:51.182Z,9272
2017-04-25T08:13:16.680Z,11548
2017-04-25T08:13:42.136Z,10996
2017-04-25T08:14:07.621Z,9004
2017-04-25T08:14:33.151Z,8276
2017-04-25T08:14:58.619Z,8312
2017-04-25T08:15:24.084Z,8016
2017-04-25T08:15:49.553Z,8680
2017-04-25T08:16:15.030Z,9608
2017-04-25T08:16:40.516Z,9856
2017-04-25T08:17:06.056Z,9036
2017-04-25T08:17:31.529Z,9424
2017-04-25T08:17:57.002Z,10128
2017-04-25T08:18:22.445Z,10256
2017-04-25T08:18:47.924Z,10008
2017-04-25T08:19:13.402Z,8968
2017-04-25T08:19:38.880Z,9544
2017-04-25T08:20:04.345Z,10336
2017-04-25T08:20:29.820Z,9868
2017-04-25T08:20:55.311Z,9524
2017-04-25T08:21:20.802Z,9056
2017-04-25T08:21:46.292Z,10088
2017-04-25T08:22:11.800Z,11012
2017-04-25T08:22:37.298Z,11928
2017-04-25T08:23:02.718Z,11276
2017-04-25T08:23:28.182Z,10688
2017-04-25T08:23:53.644Z,11036
2017-04-25T08:24:19.125Z,12600
2017-04-25T08:24:44.581Z,14932
2017-04-25T08:25:10.071Z,15716
2017-04-25T08:25:35.512Z,14564
2017-04-25T08:26:00.986Z,12468
2017-04-25T08:26:26.470Z,11024
2017-04-25T08:26:51.958Z,9700
2017-04-25T08:27:17.419Z,8920
2017-04-25T08:27:42.912Z,9080
2017-04-25T08:28:08.426Z,9300
2017-04-25T08:28:33.932Z,10020
2017-04-25T08:28:59.414Z,11064
2017-04-25T08:29:24.852Z,10452
2017-04-25T08:29:50.426Z,10176
2017-04-25T08:30:15.906Z,10628
2017-04-25T08:30:41.386Z,11740
2017-04-25T08:31:06.847Z,11508
2017-04-25T08:31:32.318Z,9544
2017-04-25T08:31:57.777Z,8484
2017-04-25T08:32:23.236Z,8040
2017-04-25T08:32:48.744Z,8820
2017-04-25T08:33:14.215Z,9844
2017-04-25T08:33:39.669Z,9900
2017-04-25T08:34:05.132Z,8632
2017-04-25T08:34:30.662Z,7920
2017-04-25T08:34:56.093Z,8288
2017-04-25T08:35:21.592Z,7552
2017-04-25T08:35:47.065Z,7672
2017-04-25T08:36:12.566Z,8484
2017-04-25T08:36:38.029Z,9612
2017-04-25T08:37:03.511Z,11960
2017-04-25T08:37:28.997Z,13416
2017-04-25T08:37:54.505Z,14712
2017-04-25T08:38:19.996Z,15324
2017-04-25T08:38:45.439Z,16252
2017-04-25T08:39:10.972Z,16280
2017-04-25T08:39:36.516Z,15520
2017-04-25T08:40:01.951Z,15568
2017-04-25T08:40:27.423Z,15348
2017-04-25T08:40:52.894Z,13628
2017-04-25T08:41:18.353Z,12236
2017-04-25T08:41:43.825Z,11780
2017-04-25T08:42:09.321Z,11684
2017-04-25T08:42:34.812Z,11224
2017-04-25T08:43:00.307Z,10512
2017-04-25T08:43:25.748Z,10292
2017-04-25T08:43:51.234Z,10188
2017-04-25T08:44:16.724Z,9824
2017-04-25T08:44:42.170Z,9576
2017-04-25T08:45:07.657Z,9420
2017-04-25T08:45:33.123Z,10232
2017-04-25T08:45:58.604Z,11688
2017-04-25T08:46:24.089Z,13424
2017-04-25T08:46:49.619Z,13940
2017-04-25T08:47:15.313Z,14664
2017-04-25T08:47:40.711Z,14772
2017-04-25T08:48:06.164Z,14692
2017-04-25T08:48:31.639Z,13808
2017-04-25T08:48:57.108Z,13124
2017-04-25T08:49:22.586Z,13008
2017-04-25T08:49:48.084Z,12420
2017-04-25T08:50:13.525Z,11880
2017-04-25T08:50:39.093Z,11404
2017-04-25T08:51:04.538Z,11164
2017-04-25T08:51:30.012Z,10916
2017-04-25T08:51:55.470Z,10664
2017-04-25T08:52:20.922Z,11032
2017-04-25T08:52:46.421Z,11788
2017-04-25T08:53:11.882Z,11236
2017-04-25T08:53:37.364Z,9472
2017-04-25T08:54:02.818Z,8396
2017-04-25T08:54:28.293Z,8784
2017-04-25T08:54:53.775Z,9768
2017-04-25T08:55:19.265Z,10084
2017-04-25T08:55:44.768Z,10832
2017-04-25T08:56:10.356Z,12448
2017-04-25T08:56:35.785Z,13396
2017-04-25T08:57:01.280Z,13560
2017-04-25T08:57:26.762Z,12336
2017-04-25T08:57:52.258Z,11840
2017-04-25T08:58:17.685Z,12484
2017-04-25T08:58:43.138Z,13840
2017-04-25T08:59:08.631Z,13984
2017-04-25T08:59:34.136Z,14584
2017-04-25T08:59:59.615Z,15152
2017-04-25T09:00:25.097Z,14760
2017-04-25T09:00:50.604Z,13976
2017-04-25T09:01:16.033Z,12584
2017-04-25T09:01:41.520Z,12940
2017-04-25T09:02:07.007Z,13684
2017-04-25T09:02:32.509Z,15212
2017-04-25T09:02:58.008Z,16044
2017-04-25T09:03:23.459Z,14480
2017-04-25T09:03:48.901Z,12920
2017-04-25T09:04:14.373Z,12092
2017-04-25T09:04:39.823Z,11452
2017-04-25T09:05:05.309Z,10440
2017-04-25T09:05:30.819Z,10184
2017-04-25T09:05:56.350Z,9888
2017-04-25T09:06:21.793Z,10180
2017-04-25T09:06:47.307Z,11224
2017-04-25T09:07:12.800Z,12292
2017-04-25T09:07:38.278Z,13468
2017-04-25T09:08:03.739Z,14472
2017-04-25T09:08:29.231Z,14788
2017-04-25T09:08:54.702Z,13660
2017-04-25T09:09:20.170Z,11916
2017-04-25T09:09:45.623Z,11904
2017-04-25T09:10:11.090Z,12080
2017-04-25T09:10:36.591Z,10240
2017-04-25T09:11:02.049Z,8912
2017-04-25T09:11:27.508Z,8212
2017-04-25T09:11:52.974Z,8108
2017-04-25T09:12:18.428Z,8296
2017-04-25T09:12:43.886Z,8016
2017-04-25T09:13:09.353Z,7816
2017-04-25T09:13:34.807Z,8728
2017-04-25T09:14:00.280Z,11380
2017-04-25T09:14:25.744Z,14180
2017-04-25T09:14:51.227Z,15416
2017-04-25T09:15:16.681Z,15764
2017-04-25T09:15:42.168Z,16108
2017-04-25T09:16:07.683Z,16228
2017-04-25T09:16:33.205Z,15384
2017-04-25T09:16:58.613Z,15940
2017-04-25T09:17:24.102Z,17216
2017-04-25T09:17:49.544Z,16328
2017-04-25T09:18:15.021Z,15372
2017-04-25T09:18:40.499Z,13940
2017-04-25T09:19:05.972Z,13268
2017-04-25T09:19:31.483Z,13204
2017-04-25T09:19:56.991Z,12508
2017-04-25T09:20:22.493Z,12008
2017-04-25T09:20:48.000Z,12036
2017-04-25T09:21:13.469Z,12228
2017-04-25T09:21:38.942Z,12208
2017-04-25T09:22:04.419Z,11176
2017-04-25T09:22:29.883Z,11292
2017-04-25T09:22:55.373Z,12352
2017-04-25T09:23:20.858Z,13472
2017-04-25T09:23:46.329Z,13748
2017-04-25T09:24:11.803Z,15344
2017-04-25T09:24:37.293Z,15816
2017-04-25T09:25:02.765Z,14888
2017-04-25T09:25:28.236Z,14084
2017-04-25T09:25:53.752Z,13392
2017-04-25T09:26:19.200Z,12724
2017-04-25T09:26:44.671Z,12944
2017-04-25T09:27:10.120Z,13472
2017-04-25T09:27:35.573Z,15440
2017-04-25T09:28:01.044Z,16736
2017-04-25T09:28:26.529Z,16512
2017-04-25T09:28:51.994Z,15820
2017-04-25T09:29:17.466Z,16928
2017-04-25T09:29:42.934Z,17280
2017-04-25T09:30:08.410Z,17344
2017-04-25T09:30:33.908Z,17472
2017-04-25T09:30:59.378Z,15896
2017-04-25T09:31:24.855Z,14252
2017-04-25T09:31:50.339Z,14088
2017-04-25T09:32:15.814Z,14552
2017-04-25T09:32:41.270Z,15112
2017-04-25T09:33:06.752Z,15204
2017-04-25T09:33:32.263Z,14628
2017-04-25T09:33:57.665Z,14044
2017-04-25T09:34:23.139Z,13688
2017-04-25T09:34:48.609Z,13408
2017-04-25T09:35:14.098Z,12548
2017-04-25T09:35:39.616Z,11832
2017-04-25T09:36:05.085Z,11416
2017-04-25T09:36:30.546Z,12584
2017-04-25T09:36:56.035Z,12852
2017-04-25T09:37:21.493Z,11840
2017-04-25T09:37:46.968Z,11324
2017-04-25T09:38:12.479Z,11120
2017-04-25T09:38:37.902Z,11892
2017-04-25T09:39:03.390Z,12140
2017-04-25T09:39:28.825Z,12440
2017-04-25T09:39:54.314Z,14296
2017-04-25T09:40:19.786Z,15724
2017-04-25T09:40:45.267Z,16232
2017-04-25T09:41:10.747Z,15752
2017-04-25T09:41:36.234Z,16224
2017-04-25T09:42:01.695Z,16832
2017-04-25T09:42:27.172Z,16500